sensor_id;sensor_type;location;lat;lon;timestamp;P1;durP1;ratioP1;P2;durP2;ratioP2
52530;SDS011;38441;52.894;6.040;2022-12-18T00:01:53;65.90;;;26.90;;
52530;SDS011;38441;52.894;6.040;2022-12-18T00:04:24;64.70;;;26.17;;
52530;SDS011;38441;52.894;6.040;2022-12-18T00:06:50;65.40;;;27.30;;
52530;SDS011;38441;52.894;6.040;2022-12-18T00:09:16;67.20;;;25.70;;
52530;SDS011;38441;52.894;6.040;2022-12-18T00:11:42;69.00;;;27.13;;
52530;SDS011;38441;52.894;6.040;2022-12-18T00:14:08;61.97;;;25.17;;
52530;SDS011;38441;52.894;6.040;2022-12-18T00:16:34;63.72;;;24.73;;
52530;SDS011;38441;52.894;6.040;2022-12-18T00:19:02;55.58;;;23.52;;
52530;SDS011;38441;52.894;6.040;2022-12-18T00:21:28;54.92;;;24.58;;
52530;SDS011;38441;52.894;6.040;2022-12-18T00:23:54;55.30;;;22.05;;
52530;SDS011;38441;52.894;6.040;2022-12-18T00:26:28;55.40;;;22.20;;
52530;SDS011;38441;52.894;6.040;2022-12-18T00:28:54;56.10;;;24.00;;
52530;SDS011;38441;52.894;6.040;2022-12-18T00:31:23;57.28;;;22.50;;
52530;SDS011;38441;52.894;6.040;2022-12-18T00:33:50;64.45;;;24.67;;
52530;SDS011;38441;52.894;6.040;2022-12-18T00:36:18;59.55;;;23.75;;
52530;SDS011;38441;52.894;6.040;2022-12-18T00:38:44;55.70;;;23.42;;
52530;SDS011;38441;52.894;6.040;2022-12-18T00:41:11;57.13;;;23.95;;
52530;SDS011;38441;52.894;6.040;2022-12-18T00:43:38;60.58;;;24.42;;
52530;SDS011;38441;52.894;6.040;2022-12-18T00:46:05;61.50;;;23.88;;
52530;SDS011;38441;52.894;6.040;2022-12-18T00:48:31;55.88;;;22.23;;
52530;SDS011;38441;52.894;6.040;2022-12-18T00:50:57;53.10;;;21.67;;
52530;SDS011;38441;52.894;6.040;2022-12-18T00:53:23;52.58;;;22.50;;
52530;SDS011;38441;52.894;6.040;2022-12-18T00:55:49;55.53;;;22.60;;
52530;SDS011;38441;52.894;6.040;2022-12-18T00:58:17;52.05;;;21.63;;
52530;SDS011;38441;52.894;6.040;2022-12-18T01:00:42;55.92;;;23.27;;
52530;SDS011;38441;52.894;6.040;2022-12-18T01:03:09;56.17;;;22.27;;
52530;SDS011;38441;52.894;6.040;2022-12-18T01:05:38;55.53;;;22.42;;
52530;SDS011;38441;52.894;6.040;2022-12-18T01:08:05;53.95;;;21.90;;
52530;SDS011;38441;52.894;6.040;2022-12-18T01:10:31;51.47;;;21.75;;
52530;SDS011;38441;52.894;6.040;2022-12-18T01:12:57;50.30;;;21.08;;
52530;SDS011;38441;52.894;6.040;2022-12-18T01:15:23;51.15;;;20.67;;
52530;SDS011;38441;52.894;6.040;2022-12-18T01:17:49;57.35;;;22.27;;
52530;SDS011;38441;52.894;6.040;2022-12-18T01:20:17;55.78;;;22.13;;
52530;SDS011;38441;52.894;6.040;2022-12-18T01:22:43;50.67;;;22.83;;
52530;SDS011;38441;52.894;6.040;2022-12-18T01:25:09;53.92;;;21.67;;
52530;SDS011;38441;52.894;6.040;2022-12-18T01:27:35;52.47;;;21.27;;
52530;SDS011;38441;52.894;6.040;2022-12-18T01:30:01;53.65;;;21.63;;
52530;SDS011;38441;52.894;6.040;2022-12-18T01:32:29;52.50;;;22.17;;
52530;SDS011;38441;52.894;6.040;2022-12-18T01:34:55;53.50;;;21.67;;
52530;SDS011;38441;52.894;6.040;2022-12-18T01:37:21;59.95;;;22.33;;
52530;SDS011;38441;52.894;6.040;2022-12-18T01:39:47;58.85;;;23.10;;
52530;SDS011;38441;52.894;6.040;2022-12-18T01:42:15;55.13;;;21.88;;
52530;SDS011;38441;52.894;6.040;2022-12-18T01:44:55;55.05;;;21.98;;
52530;SDS011;38441;52.894;6.040;2022-12-18T01:49:57;54.40;;;23.63;;
52530;SDS011;38441;52.894;6.040;2022-12-18T01:52:24;60.42;;;23.73;;
52530;SDS011;38441;52.894;6.040;2022-12-18T01:54:53;56.03;;;22.58;;
52530;SDS011;38441;52.894;6.040;2022-12-18T01:57:19;50.47;;;22.38;;
52530;SDS011;38441;52.894;6.040;2022-12-18T01:59:45;59.08;;;24.63;;
52530;SDS011;38441;52.894;6.040;2022-12-18T02:02:13;55.22;;;23.55;;
52530;SDS011;38441;52.894;6.040;2022-12-18T02:04:40;63.47;;;24.90;;
52530;SDS011;38441;52.894;6.040;2022-12-18T02:07:12;53.22;;;21.88;;
52530;SDS011;38441;52.894;6.040;2022-12-18T02:09:43;58.50;;;22.80;;
52530;SDS011;38441;52.894;6.040;2022-12-18T02:12:13;59.58;;;23.38;;
52530;SDS011;38441;52.894;6.040;2022-12-18T02:14:49;54.35;;;23.25;;
52530;SDS011;38441;52.894;6.040;2022-12-18T02:17:21;53.08;;;22.63;;
52530;SDS011;38441;52.894;6.040;2022-12-18T02:23:06;60.67;;;24.85;;
52530;SDS011;38441;52.894;6.040;2022-12-18T02:25:58;58.25;;;22.95;;
52530;SDS011;38441;52.894;6.040;2022-12-18T02:28:28;64.32;;;24.90;;
52530;SDS011;38441;52.894;6.040;2022-12-18T02:30:56;63.10;;;24.98;;
52530;SDS011;38441;52.894;6.040;2022-12-18T02:33:25;63.42;;;25.20;;
52530;SDS011;38441;52.894;6.040;2022-12-18T02:35:52;60.08;;;24.65;;
52530;SDS011;38441;52.894;6.040;2022-12-18T02:38:19;57.33;;;23.63;;
52530;SDS011;38441;52.894;6.040;2022-12-18T02:40:45;56.88;;;24.48;;
52530;SDS011;38441;52.894;6.040;2022-12-18T02:43:14;60.00;;;24.63;;
52530;SDS011;38441;52.894;6.040;2022-12-18T02:45:48;58.67;;;24.95;;
52530;SDS011;38441;52.894;6.040;2022-12-18T02:48:14;55.92;;;24.45;;
52530;SDS011;38441;52.894;6.040;2022-12-18T02:50:44;53.50;;;24.25;;
52530;SDS011;38441;52.894;6.040;2022-12-18T02:53:24;51.35;;;22.70;;
52530;SDS011;38441;52.894;6.040;2022-12-18T03:01:08;54.15;;;21.77;;
52530;SDS011;38441;52.894;6.040;2022-12-18T03:03:40;53.00;;;23.25;;
52530;SDS011;38441;52.894;6.040;2022-12-18T03:06:08;60.03;;;24.85;;
52530;SDS011;38441;52.894;6.040;2022-12-18T03:08:41;55.75;;;23.75;;
52530;SDS011;38441;52.894;6.040;2022-12-18T03:11:09;58.45;;;24.83;;
52530;SDS011;38441;52.894;6.040;2022-12-18T03:13:39;56.75;;;23.23;;
52530;SDS011;38441;52.894;6.040;2022-12-18T03:16:07;58.72;;;24.00;;
52530;SDS011;38441;52.894;6.040;2022-12-18T03:18:36;57.58;;;23.73;;
52530;SDS011;38441;52.894;6.040;2022-12-18T03:21:07;56.08;;;23.88;;
52530;SDS011;38441;52.894;6.040;2022-12-18T03:23:35;56.85;;;22.30;;
52530;SDS011;38441;52.894;6.040;2022-12-18T03:26:03;57.35;;;23.85;;
52530;SDS011;38441;52.894;6.040;2022-12-18T03:28:33;56.42;;;24.13;;
52530;SDS011;38441;52.894;6.040;2022-12-18T03:31:01;57.80;;;22.98;;
52530;SDS011;38441;52.894;6.040;2022-12-18T03:33:29;54.15;;;23.75;;
52530;SDS011;38441;52.894;6.040;2022-12-18T03:35:56;53.38;;;22.48;;
52530;SDS011;38441;52.894;6.040;2022-12-18T03:38:22;49.58;;;21.08;;
52530;SDS011;38441;52.894;6.040;2022-12-18T03:46:20;46.67;;;19.27;;
52530;SDS011;38441;52.894;6.040;2022-12-18T03:48:56;49.25;;;21.45;;
52530;SDS011;38441;52.894;6.040;2022-12-18T03:54:09;48.53;;;21.17;;
52530;SDS011;38441;52.894;6.040;2022-12-18T03:56:36;50.25;;;20.90;;
52530;SDS011;38441;52.894;6.040;2022-12-18T03:59:04;47.13;;;20.08;;
52530;SDS011;38441;52.894;6.040;2022-12-18T04:01:31;45.38;;;19.48;;
52530;SDS011;38441;52.894;6.040;2022-12-18T04:04:01;43.90;;;19.80;;
52530;SDS011;38441;52.894;6.040;2022-12-18T04:06:28;46.85;;;19.73;;
52530;SDS011;38441;52.894;6.040;2022-12-18T04:08:55;44.95;;;21.33;;
52530;SDS011;38441;52.894;6.040;2022-12-18T04:11:22;43.00;;;20.40;;
52530;SDS011;38441;52.894;6.040;2022-12-18T04:13:48;49.13;;;20.80;;
52530;SDS011;38441;52.894;6.040;2022-12-18T04:16:14;38.90;;;18.85;;
52530;SDS011;38441;52.894;6.040;2022-12-18T04:18:40;47.95;;;20.42;;
52530;SDS011;38441;52.894;6.040;2022-12-18T04:21:06;44.78;;;20.08;;
52530;SDS011;38441;52.894;6.040;2022-12-18T04:23:31;45.22;;;20.70;;
52530;SDS011;38441;52.894;6.040;2022-12-18T04:25:58;39.92;;;19.30;;
52530;SDS011;38441;52.894;6.040;2022-12-18T04:28:25;44.08;;;19.73;;
52530;SDS011;38441;52.894;6.040;2022-12-18T04:30:51;44.75;;;19.92;;
52530;SDS011;38441;52.894;6.040;2022-12-18T04:33:17;44.30;;;19.15;;
52530;SDS011;38441;52.894;6.040;2022-12-18T04:35:43;43.28;;;19.40;;
52530;SDS011;38441;52.894;6.040;2022-12-18T04:38:09;46.22;;;19.42;;
52530;SDS011;38441;52.894;6.040;2022-12-18T04:40:35;38.97;;;18.42;;
52530;SDS011;38441;52.894;6.040;2022-12-18T04:43:01;42.97;;;18.63;;
52530;SDS011;38441;52.894;6.040;2022-12-18T04:45:27;42.03;;;18.52;;
52530;SDS011;38441;52.894;6.040;2022-12-18T04:47:53;37.42;;;18.80;;
52530;SDS011;38441;52.894;6.040;2022-12-18T04:50:19;41.22;;;19.52;;
52530;SDS011;38441;52.894;6.040;2022-12-18T04:52:45;37.50;;;17.75;;
52530;SDS011;38441;52.894;6.040;2022-12-18T04:55:11;41.90;;;18.70;;
52530;SDS011;38441;52.894;6.040;2022-12-18T04:57:37;41.42;;;18.40;;
52530;SDS011;38441;52.894;6.040;2022-12-18T05:00:03;41.13;;;19.25;;
52530;SDS011;38441;52.894;6.040;2022-12-18T05:02:31;39.88;;;17.55;;
52530;SDS011;38441;52.894;6.040;2022-12-18T05:04:57;40.05;;;17.55;;
52530;SDS011;38441;52.894;6.040;2022-12-18T05:07:23;40.22;;;18.80;;
52530;SDS011;38441;52.894;6.040;2022-12-18T05:09:49;43.63;;;19.02;;
52530;SDS011;38441;52.894;6.040;2022-12-18T05:12:15;41.83;;;18.35;;
52530;SDS011;38441;52.894;6.040;2022-12-18T05:14:41;39.60;;;17.10;;
52530;SDS011;38441;52.894;6.040;2022-12-18T05:17:07;47.20;;;18.40;;
52530;SDS011;38441;52.894;6.040;2022-12-18T05:19:33;37.95;;;16.48;;
52530;SDS011;38441;52.894;6.040;2022-12-18T05:21:59;38.15;;;17.23;;
52530;SDS011;38441;52.894;6.040;2022-12-18T05:24:26;34.17;;;16.83;;
52530;SDS011;38441;52.894;6.040;2022-12-18T05:26:52;36.47;;;16.67;;
52530;SDS011;38441;52.894;6.040;2022-12-18T05:29:18;36.80;;;17.48;;
52530;SDS011;38441;52.894;6.040;2022-12-18T05:31:44;36.95;;;16.05;;
52530;SDS011;38441;52.894;6.040;2022-12-18T05:34:10;39.13;;;17.63;;
52530;SDS011;38441;52.894;6.040;2022-12-18T05:36:36;34.80;;;15.90;;
52530;SDS011;38441;52.894;6.040;2022-12-18T05:39:02;33.90;;;16.15;;
52530;SDS011;38441;52.894;6.040;2022-12-18T05:41:28;32.35;;;15.02;;
52530;SDS011;38441;52.894;6.040;2022-12-18T05:43:54;34.15;;;16.08;;
52530;SDS011;38441;52.894;6.040;2022-12-18T05:46:20;32.55;;;15.88;;
52530;SDS011;38441;52.894;6.040;2022-12-18T05:48:46;36.88;;;16.73;;
52530;SDS011;38441;52.894;6.040;2022-12-18T05:51:14;38.30;;;15.82;;
52530;SDS011;38441;52.894;6.040;2022-12-18T05:53:40;32.83;;;14.82;;
52530;SDS011;38441;52.894;6.040;2022-12-18T05:56:08;31.88;;;14.82;;
52530;SDS011;38441;52.894;6.040;2022-12-18T05:58:34;36.95;;;16.17;;
52530;SDS011;38441;52.894;6.040;2022-12-18T06:01:08;33.28;;;14.80;;
52530;SDS011;38441;52.894;6.040;2022-12-18T06:03:34;35.20;;;15.90;;
52530;SDS011;38441;52.894;6.040;2022-12-18T06:06:00;33.58;;;14.98;;
52530;SDS011;38441;52.894;6.040;2022-12-18T06:08:26;33.70;;;15.32;;
52530;SDS011;38441;52.894;6.040;2022-12-18T06:10:52;33.33;;;14.88;;
52530;SDS011;38441;52.894;6.040;2022-12-18T06:13:19;36.60;;;16.70;;
52530;SDS011;38441;52.894;6.040;2022-12-18T06:15:45;31.63;;;14.93;;
52530;SDS011;38441;52.894;6.040;2022-12-18T06:18:11;34.72;;;15.02;;
52530;SDS011;38441;52.894;6.040;2022-12-18T06:20:37;32.42;;;15.93;;
52530;SDS011;38441;52.894;6.040;2022-12-18T06:23:05;28.23;;;14.02;;
52530;SDS011;38441;52.894;6.040;2022-12-18T06:25:31;31.65;;;15.30;;
52530;SDS011;38441;52.894;6.040;2022-12-18T06:27:57;31.55;;;15.57;;
52530;SDS011;38441;52.894;6.040;2022-12-18T06:30:23;32.65;;;15.55;;
52530;SDS011;38441;52.894;6.040;2022-12-18T06:32:50;30.67;;;14.90;;
52530;SDS011;38441;52.894;6.040;2022-12-18T06:35:16;30.98;;;14.82;;
52530;SDS011;38441;52.894;6.040;2022-12-18T06:37:42;33.75;;;13.93;;
52530;SDS011;38441;52.894;6.040;2022-12-18T06:40:08;33.15;;;15.18;;
52530;SDS011;38441;52.894;6.040;2022-12-18T06:42:34;28.20;;;14.27;;
52530;SDS011;38441;52.894;6.040;2022-12-18T06:45:00;32.50;;;13.52;;
52530;SDS011;38441;52.894;6.040;2022-12-18T06:47:26;28.55;;;13.68;;
52530;SDS011;38441;52.894;6.040;2022-12-18T06:49:52;32.05;;;13.55;;
52530;SDS011;38441;52.894;6.040;2022-12-18T06:52:18;27.38;;;12.57;;
52530;SDS011;38441;52.894;6.040;2022-12-18T06:54:44;34.17;;;14.13;;
52530;SDS011;38441;52.894;6.040;2022-12-18T06:57:10;29.17;;;13.23;;
52530;SDS011;38441;52.894;6.040;2022-12-18T06:59:36;26.40;;;12.20;;
52530;SDS011;38441;52.894;6.040;2022-12-18T07:02:02;30.92;;;13.13;;
52530;SDS011;38441;52.894;6.040;2022-12-18T07:04:31;28.73;;;12.98;;
52530;SDS011;38441;52.894;6.040;2022-12-18T07:06:57;30.55;;;12.98;;
52530;SDS011;38441;52.894;6.040;2022-12-18T07:09:23;28.77;;;13.75;;
52530;SDS011;38441;52.894;6.040;2022-12-18T07:11:49;27.00;;;12.60;;
52530;SDS011;38441;52.894;6.040;2022-12-18T07:14:15;26.48;;;12.85;;
52530;SDS011;38441;52.894;6.040;2022-12-18T07:16:41;28.00;;;12.95;;
52530;SDS011;38441;52.894;6.040;2022-12-18T07:19:07;26.58;;;12.82;;
52530;SDS011;38441;52.894;6.040;2022-12-18T07:21:33;26.90;;;12.82;;
52530;SDS011;38441;52.894;6.040;2022-12-18T07:23:59;27.98;;;12.10;;
52530;SDS011;38441;52.894;6.040;2022-12-18T07:26:25;27.00;;;12.70;;
52530;SDS011;38441;52.894;6.040;2022-12-18T07:28:54;25.52;;;13.45;;
52530;SDS011;38441;52.894;6.040;2022-12-18T07:31:20;30.85;;;13.77;;
52530;SDS011;38441;52.894;6.040;2022-12-18T07:33:47;28.40;;;12.70;;
52530;SDS011;38441;52.894;6.040;2022-12-18T07:36:13;24.58;;;12.05;;
52530;SDS011;38441;52.894;6.040;2022-12-18T07:38:39;27.08;;;12.45;;
52530;SDS011;38441;52.894;6.040;2022-12-18T07:41:09;24.52;;;12.57;;
52530;SDS011;38441;52.894;6.040;2022-12-18T07:43:36;27.73;;;12.02;;
52530;SDS011;38441;52.894;6.040;2022-12-18T07:46:02;29.38;;;12.55;;
52530;SDS011;38441;52.894;6.040;2022-12-18T07:48:28;27.88;;;12.68;;
52530;SDS011;38441;52.894;6.040;2022-12-18T07:51:01;26.60;;;13.02;;
52530;SDS011;38441;52.894;6.040;2022-12-18T07:53:27;26.67;;;13.07;;
52530;SDS011;38441;52.894;6.040;2022-12-18T07:55:57;28.48;;;12.63;;
52530;SDS011;38441;52.894;6.040;2022-12-18T07:58:23;29.90;;;12.95;;
52530;SDS011;38441;52.894;6.040;2022-12-18T08:00:49;29.20;;;13.75;;
52530;SDS011;38441;52.894;6.040;2022-12-18T08:03:15;25.60;;;12.23;;
52530;SDS011;38441;52.894;6.040;2022-12-18T08:05:41;23.15;;;12.52;;
52530;SDS011;38441;52.894;6.040;2022-12-18T08:08:07;26.90;;;12.70;;
52530;SDS011;38441;52.894;6.040;2022-12-18T08:10:33;24.23;;;12.20;;
52530;SDS011;38441;52.894;6.040;2022-12-18T08:12:59;28.60;;;13.50;;
52530;SDS011;38441;52.894;6.040;2022-12-18T08:15:25;26.38;;;12.55;;
52530;SDS011;38441;52.894;6.040;2022-12-18T08:17:51;26.45;;;13.02;;
52530;SDS011;38441;52.894;6.040;2022-12-18T08:20:17;24.50;;;11.98;;
52530;SDS011;38441;52.894;6.040;2022-12-18T08:22:43;31.70;;;14.38;;
52530;SDS011;38441;52.894;6.040;2022-12-18T08:25:09;28.70;;;13.05;;
52530;SDS011;38441;52.894;6.040;2022-12-18T08:27:36;25.75;;;12.63;;
52530;SDS011;38441;52.894;6.040;2022-12-18T08:30:02;28.05;;;13.95;;
52530;SDS011;38441;52.894;6.040;2022-12-18T08:32:28;24.85;;;12.85;;
52530;SDS011;38441;52.894;6.040;2022-12-18T08:34:54;25.90;;;12.23;;
52530;SDS011;38441;52.894;6.040;2022-12-18T08:37:20;26.55;;;12.32;;
52530;SDS011;38441;52.894;6.040;2022-12-18T08:39:46;20.90;;;11.85;;
52530;SDS011;38441;52.894;6.040;2022-12-18T08:42:12;23.95;;;12.50;;
52530;SDS011;38441;52.894;6.040;2022-12-18T08:44:56;24.92;;;11.95;;
52530;SDS011;38441;52.894;6.040;2022-12-18T08:47:23;26.27;;;12.73;;
52530;SDS011;38441;52.894;6.040;2022-12-18T08:49:50;26.73;;;12.45;;
52530;SDS011;38441;52.894;6.040;2022-12-18T08:52:16;29.27;;;13.38;;
52530;SDS011;38441;52.894;6.040;2022-12-18T08:54:42;26.67;;;12.93;;
52530;SDS011;38441;52.894;6.040;2022-12-18T08:57:08;23.40;;;12.23;;
52530;SDS011;38441;52.894;6.040;2022-12-18T08:59:34;25.50;;;11.93;;
52530;SDS011;38441;52.894;6.040;2022-12-18T09:02:00;24.00;;;11.88;;
52530;SDS011;38441;52.894;6.040;2022-12-18T09:04:26;22.98;;;12.52;;
52530;SDS011;38441;52.894;6.040;2022-12-18T09:06:52;23.38;;;11.70;;
52530;SDS011;38441;52.894;6.040;2022-12-18T09:09:18;24.35;;;12.15;;
52530;SDS011;38441;52.894;6.040;2022-12-18T09:11:44;19.40;;;11.50;;
52530;SDS011;38441;52.894;6.040;2022-12-18T09:14:10;21.20;;;11.95;;
52530;SDS011;38441;52.894;6.040;2022-12-18T09:16:36;22.13;;;11.70;;
52530;SDS011;38441;52.894;6.040;2022-12-18T09:19:03;24.63;;;11.00;;
52530;SDS011;38441;52.894;6.040;2022-12-18T09:21:30;20.05;;;11.27;;
52530;SDS011;38441;52.894;6.040;2022-12-18T09:23:56;21.65;;;11.27;;
52530;SDS011;38441;52.894;6.040;2022-12-18T09:26:23;25.33;;;11.95;;
52530;SDS011;38441;52.894;6.040;2022-12-18T09:28:49;20.63;;;11.77;;
52530;SDS011;38441;52.894;6.040;2022-12-18T09:31:16;22.67;;;11.23;;
52530;SDS011;38441;52.894;6.040;2022-12-18T09:33:43;19.58;;;10.32;;
52530;SDS011;38441;52.894;6.040;2022-12-18T09:36:11;25.52;;;12.75;;
52530;SDS011;38441;52.894;6.040;2022-12-18T09:38:37;23.63;;;11.60;;
52530;SDS011;38441;52.894;6.040;2022-12-18T09:43:58;23.15;;;11.45;;
52530;SDS011;38441;52.894;6.040;2022-12-18T09:46:27;21.88;;;10.63;;
52530;SDS011;38441;52.894;6.040;2022-12-18T09:48:54;20.42;;;11.00;;
52530;SDS011;38441;52.894;6.040;2022-12-18T09:51:26;22.17;;;10.93;;
52530;SDS011;38441;52.894;6.040;2022-12-18T09:53:54;19.13;;;11.43;;
52530;SDS011;38441;52.894;6.040;2022-12-18T09:56:21;17.75;;;10.10;;
52530;SDS011;38441;52.894;6.040;2022-12-18T09:58:59;19.95;;;10.57;;
52530;SDS011;38441;52.894;6.040;2022-12-18T10:01:26;20.33;;;10.30;;
52530;SDS011;38441;52.894;6.040;2022-12-18T10:03:52;19.30;;;10.50;;
52530;SDS011;38441;52.894;6.040;2022-12-18T10:08:57;16.60;;;9.60;;
52530;SDS011;38441;52.894;6.040;2022-12-18T10:19:59;17.02;;;9.32;;
52530;SDS011;38441;52.894;6.040;2022-12-18T10:25:20;17.20;;;10.27;;
52530;SDS011;38441;52.894;6.040;2022-12-18T10:27:47;15.43;;;9.43;;
52530;SDS011;38441;52.894;6.040;2022-12-18T10:30:15;16.75;;;9.80;;
52530;SDS011;38441;52.894;6.040;2022-12-18T10:32:41;19.45;;;9.98;;
52530;SDS011;38441;52.894;6.040;2022-12-18T10:35:07;16.48;;;9.15;;
52530;SDS011;38441;52.894;6.040;2022-12-18T10:37:35;16.85;;;9.55;;
52530;SDS011;38441;52.894;6.040;2022-12-18T10:40:05;15.55;;;9.30;;
52530;SDS011;38441;52.894;6.040;2022-12-18T10:42:32;14.32;;;8.27;;
52530;SDS011;38441;52.894;6.040;2022-12-18T10:45:14;18.63;;;9.85;;
52530;SDS011;38441;52.894;6.040;2022-12-18T10:47:49;17.10;;;8.65;;
52530;SDS011;38441;52.894;6.040;2022-12-18T10:50:18;15.50;;;8.77;;
52530;SDS011;38441;52.894;6.040;2022-12-18T10:52:45;12.43;;;8.13;;
52530;SDS011;38441;52.894;6.040;2022-12-18T10:55:18;13.90;;;7.70;;
52530;SDS011;38441;52.894;6.040;2022-12-18T10:57:44;13.25;;;7.68;;
52530;SDS011;38441;52.894;6.040;2022-12-18T11:02:49;13.45;;;7.22;;
52530;SDS011;38441;52.894;6.040;2022-12-18T11:05:23;13.27;;;7.45;;
52530;SDS011;38441;52.894;6.040;2022-12-18T11:07:50;16.13;;;7.20;;
52530;SDS011;38441;52.894;6.040;2022-12-18T11:10:19;12.05;;;7.15;;
52530;SDS011;38441;52.894;6.040;2022-12-18T11:12:45;12.05;;;7.07;;
52530;SDS011;38441;52.894;6.040;2022-12-18T11:15:15;11.35;;;6.18;;
52530;SDS011;38441;52.894;6.040;2022-12-18T11:17:42;13.07;;;7.07;;
52530;SDS011;38441;52.894;6.040;2022-12-18T11:20:23;13.00;;;7.35;;
52530;SDS011;38441;52.894;6.040;2022-12-18T11:23:04;14.52;;;7.53;;
52530;SDS011;38441;52.894;6.040;2022-12-18T11:25:36;12.93;;;7.45;;
52530;SDS011;38441;52.894;6.040;2022-12-18T11:28:03;10.82;;;6.60;;
52530;SDS011;38441;52.894;6.040;2022-12-18T11:30:34;11.75;;;6.55;;
52530;SDS011;38441;52.894;6.040;2022-12-18T11:33:11;13.80;;;7.43;;
52530;SDS011;38441;52.894;6.040;2022-12-18T11:35:49;13.65;;;6.97;;
52530;SDS011;38441;52.894;6.040;2022-12-18T11:40:53;12.77;;;6.82;;
52530;SDS011;38441;52.894;6.040;2022-12-18T11:46:06;10.23;;;5.78;;
52530;SDS011;38441;52.894;6.040;2022-12-18T11:48:34;10.18;;;6.28;;
52530;SDS011;38441;52.894;6.040;2022-12-18T11:51:02;11.48;;;6.20;;
52530;SDS011;38441;52.894;6.040;2022-12-18T11:53:30;10.82;;;6.20;;
52530;SDS011;38441;52.894;6.040;2022-12-18T12:01:19;11.20;;;6.50;;
52530;SDS011;38441;52.894;6.040;2022-12-18T12:03:54;10.48;;;6.05;;
52530;SDS011;38441;52.894;6.040;2022-12-18T12:06:24;13.60;;;6.63;;
52530;SDS011;38441;52.894;6.040;2022-12-18T12:09:07;10.70;;;6.43;;
52530;SDS011;38441;52.894;6.040;2022-12-18T12:11:49;11.43;;;6.22;;
52530;SDS011;38441;52.894;6.040;2022-12-18T12:21:58;11.45;;;6.30;;
52530;SDS011;38441;52.894;6.040;2022-12-18T12:24:30;11.35;;;5.65;;
52530;SDS011;38441;52.894;6.040;2022-12-18T12:32:17;10.73;;;6.32;;
52530;SDS011;38441;52.894;6.040;2022-12-18T12:37:31;10.27;;;5.40;;
52530;SDS011;38441;52.894;6.040;2022-12-18T12:40:02;13.60;;;6.30;;
52530;SDS011;38441;52.894;6.040;2022-12-18T12:48:13;10.38;;;6.45;;
52530;SDS011;38441;52.894;6.040;2022-12-18T12:50:41;10.85;;;5.78;;
52530;SDS011;38441;52.894;6.040;2022-12-18T12:53:08;10.65;;;5.85;;
52530;SDS011;38441;52.894;6.040;2022-12-18T12:55:35;11.48;;;6.63;;
52530;SDS011;38441;52.894;6.040;2022-12-18T13:01:12;10.98;;;5.50;;
52530;SDS011;38441;52.894;6.040;2022-12-18T13:03:51;11.70;;;7.53;;
52530;SDS011;38441;52.894;6.040;2022-12-18T13:06:29;11.88;;;6.03;;
52530;SDS011;38441;52.894;6.040;2022-12-18T13:08:59;11.00;;;6.15;;
52530;SDS011;38441;52.894;6.040;2022-12-18T13:11:28;10.13;;;5.82;;
52530;SDS011;38441;52.894;6.040;2022-12-18T13:14:22;9.90;;;6.05;;
52530;SDS011;38441;52.894;6.040;2022-12-18T13:16:48;10.45;;;5.65;;
52530;SDS011;38441;52.894;6.040;2022-12-18T13:19:23;10.57;;;5.82;;
52530;SDS011;38441;52.894;6.040;2022-12-18T13:21:52;10.13;;;5.75;;
52530;SDS011;38441;52.894;6.040;2022-12-18T13:24:26;10.05;;;6.00;;
52530;SDS011;38441;52.894;6.040;2022-12-18T13:26:55;10.88;;;5.93;;
52530;SDS011;38441;52.894;6.040;2022-12-18T13:29:40;9.00;;;5.05;;
52530;SDS011;38441;52.894;6.040;2022-12-18T13:32:17;10.43;;;5.93;;
52530;SDS011;38441;52.894;6.040;2022-12-18T13:34:44;9.50;;;5.20;;
52530;SDS011;38441;52.894;6.040;2022-12-18T13:39:55;8.23;;;5.22;;
52530;SDS011;38441;52.894;6.040;2022-12-18T13:42:37;9.45;;;5.05;;
52530;SDS011;38441;52.894;6.040;2022-12-18T13:45:34;8.55;;;5.20;;
52530;SDS011;38441;52.894;6.040;2022-12-18T13:48:01;10.10;;;6.13;;
52530;SDS011;38441;52.894;6.040;2022-12-18T13:50:28;9.70;;;5.28;;
52530;SDS011;38441;52.894;6.040;2022-12-18T13:52:54;10.10;;;5.47;;
52530;SDS011;38441;52.894;6.040;2022-12-18T13:55:20;8.18;;;4.97;;
52530;SDS011;38441;52.894;6.040;2022-12-18T13:57:47;11.05;;;4.80;;
52530;SDS011;38441;52.894;6.040;2022-12-18T14:02:44;9.60;;;5.20;;
52530;SDS011;38441;52.894;6.040;2022-12-18T14:05:21;9.40;;;4.85;;
52530;SDS011;38441;52.894;6.040;2022-12-18T14:07:47;8.40;;;4.82;;
52530;SDS011;38441;52.894;6.040;2022-12-18T14:10:13;8.80;;;4.50;;
52530;SDS011;38441;52.894;6.040;2022-12-18T14:12:44;7.45;;;4.63;;
52530;SDS011;38441;52.894;6.040;2022-12-18T14:17:52;8.50;;;4.43;;
52530;SDS011;38441;52.894;6.040;2022-12-18T14:20:18;7.32;;;4.50;;
52530;SDS011;38441;52.894;6.040;2022-12-18T14:22:45;8.43;;;4.45;;
52530;SDS011;38441;52.894;6.040;2022-12-18T14:27:51;8.07;;;4.80;;
52530;SDS011;38441;52.894;6.040;2022-12-18T14:38:23;8.63;;;5.53;;
52530;SDS011;38441;52.894;6.040;2022-12-18T14:41:23;9.30;;;4.63;;
52530;SDS011;38441;52.894;6.040;2022-12-18T14:43:43;9.30;;;4.95;;
52530;SDS011;38441;52.894;6.040;2022-12-18T14:49:18;9.77;;;5.13;;
52530;SDS011;38441;52.894;6.040;2022-12-18T14:51:48;10.20;;;4.70;;
52530;SDS011;38441;52.894;6.040;2022-12-18T14:54:16;9.10;;;4.28;;
52530;SDS011;38441;52.894;6.040;2022-12-18T14:56:44;7.10;;;4.53;;
52530;SDS011;38441;52.894;6.040;2022-12-18T14:59:15;8.60;;;4.45;;
52530;SDS011;38441;52.894;6.040;2022-12-18T15:01:45;9.63;;;4.70;;
52530;SDS011;38441;52.894;6.040;2022-12-18T15:07:13;10.43;;;5.13;;
52530;SDS011;38441;52.894;6.040;2022-12-18T15:09:40;10.98;;;5.85;;
52530;SDS011;38441;52.894;6.040;2022-12-18T15:12:19;9.77;;;5.50;;
52530;SDS011;38441;52.894;6.040;2022-12-18T15:14:47;9.52;;;5.45;;
52530;SDS011;38441;52.894;6.040;2022-12-18T15:17:17;10.30;;;5.75;;
52530;SDS011;38441;52.894;6.040;2022-12-18T15:19:44;11.02;;;5.18;;
52530;SDS011;38441;52.894;6.040;2022-12-18T15:22:20;11.50;;;5.30;;
52530;SDS011;38441;52.894;6.040;2022-12-18T15:24:47;10.43;;;5.32;;
52530;SDS011;38441;52.894;6.040;2022-12-18T15:32:33;7.43;;;4.22;;
52530;SDS011;38441;52.894;6.040;2022-12-18T15:37:34;11.30;;;4.13;;
52530;SDS011;38441;52.894;6.040;2022-12-18T15:40:00;7.90;;;4.35;;
52530;SDS011;38441;52.894;6.040;2022-12-18T15:42:27;7.80;;;4.10;;
52530;SDS011;38441;52.894;6.040;2022-12-18T15:45:12;8.57;;;4.50;;
52530;SDS011;38441;52.894;6.040;2022-12-18T15:47:39;8.07;;;4.28;;
52530;SDS011;38441;52.894;6.040;2022-12-18T15:50:06;9.48;;;4.78;;
52530;SDS011;38441;52.894;6.040;2022-12-18T15:52:34;8.10;;;4.38;;
52530;SDS011;38441;52.894;6.040;2022-12-18T15:55:02;7.95;;;4.22;;
52530;SDS011;38441;52.894;6.040;2022-12-18T15:57:46;7.10;;;4.10;;
52530;SDS011;38441;52.894;6.040;2022-12-18T16:00:13;7.28;;;4.22;;
52530;SDS011;38441;52.894;6.040;2022-12-18T16:02:39;6.55;;;3.85;;
52530;SDS011;38441;52.894;6.040;2022-12-18T16:05:09;7.78;;;4.15;;
52530;SDS011;38441;52.894;6.040;2022-12-18T16:07:39;7.25;;;4.25;;
52530;SDS011;38441;52.894;6.040;2022-12-18T16:10:05;7.70;;;4.53;;
52530;SDS011;38441;52.894;6.040;2022-12-18T16:12:31;8.60;;;4.53;;
52530;SDS011;38441;52.894;6.040;2022-12-18T16:14:57;8.63;;;4.38;;
52530;SDS011;38441;52.894;6.040;2022-12-18T16:17:23;8.73;;;4.32;;
52530;SDS011;38441;52.894;6.040;2022-12-18T16:19:49;7.57;;;4.30;;
52530;SDS011;38441;52.894;6.040;2022-12-18T16:22:20;7.47;;;4.18;;